Time;durP1;ratioP1;P1;durP2;ratioP2;P2;SDS_P1;SDS_P2;PMS_P1;PMS_P2;Temp;Humidity;BMP_temperature;BMP_pressure;BME280_temperature;BME280_humidity;BME280_pressure;Samples;Min_cycle;Max_cycle;Signal;HPM_P1;HPM_P2
2021/04/01 00:00:39;;;;;;;;;;;;;;;6.16;47.73;100783.92;1805462;79;20268;-68
2021/04/01 00:03:07;;;;;;;;;;;;;;;6.11;47.98;100780.72;1807573;79;22045;-66
2021/04/01 00:05:35;;;;;;;;;;;;;;;6.06;48.09;100784.05;1794095;79;20381;-66
2021/04/01 00:08:02;;;;;;;;;;;;;;;6.02;48.43;100777.28;1793702;79;20439;-68
2021/04/01 00:10:32;;;;;;;;;;;;;;;5.99;48.46;100782.23;1776639;80;20540;-68
2021/04/01 00:12:59;;;;;;;;;;;;;;;5.96;48.52;100774.98;1793500;80;20498;-66
2021/04/01 00:15:27;;;;;;;;;;;;;;;5.93;48.76;100780.40;1793800;80;21899;-66
2021/04/01 00:17:56;;;;;;;;;;;;;;;5.92;48.96;100776.09;1794431;79;20546;-68
2021/04/01 00:20:23;;;;;;;;;;;;;;;5.91;49.22;100772.63;1803518;79;20234;-67
2021/04/01 00:22:52;;;;;;;;;;;;;;;5.88;49.05;100765.33;1809189;79;20515;-68
2021/04/01 00:25:20;;;;;;;;;;;;;;;5.86;49.09;100764.11;1796712;80;20221;-68
2021/04/01 00:27:48;;;;;;;;;;;;;;;5.85;49.19;100753.25;1796719;80;21894;-68
2021/04/01 00:30:16;;;;;;;;;;;;;;;5.84;49.32;100754.64;1797290;79;21133;-67
2021/04/01 00:32:46;;;;;;;;;;;;;;;5.81;49.32;100750.42;1798036;79;20220;-66
2021/04/01 00:35:14;;;;;;;;;;;;;;;5.81;49.38;100748.27;1800422;79;20467;-66
2021/04/01 00:37:41;;;;;;;;;;;;;;;5.80;49.56;100746.11;1811023;79;20257;-66
2021/04/01 00:40:10;;;;;;;;;;;;;;;5.78;49.62;100746.63;1810677;79;22049;-66
2021/04/01 00:42:38;;;;;;;;;;;;;;;5.78;49.63;100747.09;1805057;79;21080;-68
2021/04/01 00:45:07;;;;;;;;;;;;;;;5.77;49.80;100748.03;1796998;79;20496;-66
2021/04/01 00:47:37;;;;;;;;;;;;;;;5.75;49.79;100737.63;1796605;79;20449;-66
2021/04/01 00:50:06;;;;;;;;;;;;;;;5.75;49.90;100738.94;1796718;78;20241;-67
2021/04/01 00:52:35;;;;;;;;;;;;;;;5.72;49.95;100737.80;1723735;82;22130;-67
2021/04/01 00:55:03;;;;;;;;;;;;;;;5.70;49.99;100729.19;1782334;80;21322;-67
2021/04/01 00:57:31;;;;;;;;;;;;;;;5.69;50.14;100728.77;1807309;79;20238;-66
2021/04/01 00:59:58;;;;;;;;;;;;;;;5.67;50.25;100720.16;1798153;79;20482;-67
2021/04/01 01:02:26;;;;;;;;;;;;;;;5.65;50.35;100722.86;1794848;80;20221;-68
2021/04/01 01:04:54;;;;;;;;;;;;;;;5.63;50.45;100717.33;1787570;80;22074;-66
2021/04/01 01:07:22;;;;;;;;;;;;;;;5.59;50.56;100717.94;1796716;80;20360;-66
2021/04/01 01:09:49;;;;;;;;;;;;;;;5.56;50.78;100714.64;1796596;80;20211;-66
2021/04/01 01:12:16;;;;;;;;;;;;;;;5.51;50.84;100712.75;1798576;78;20481;-69
2021/04/01 01:14:44;;;;;;;;;;;;;;;5.46;50.98;100709.05;1796675;80;20219;-70
2021/04/01 01:17:14;;;;;;;;;;;;;;;5.42;50.93;100708.37;1796784;79;21840;-71
2021/04/01 01:19:44;;;;;;;;;;;;;;;5.40;51.08;100704.12;1796589;80;20366;-70
2021/04/01 01:22:12;;;;;;;;;;;;;;;5.38;51.21;100702.05;1780370;80;20314;-71
2021/04/01 01:24:39;;;;;;;;;;;;;;;5.35;51.33;100700.45;1797062;80;20487;-71
2021/04/01 01:27:07;;;;;;;;;;;;;;;5.32;51.48;100697.16;1797302;80;20240;-69
2021/04/01 01:29:34;;;;;;;;;;;;;;;5.29;51.65;100703.84;1798421;79;21957;-69
2021/04/01 01:32:03;;;;;;;;;;;;;;;5.25;51.84;100695.77;1755775;79;20381;-71
2021/04/01 01:34:30;;;;;;;;;;;;;;;5.23;51.93;100698.48;1792887;79;20376;-70
2021/04/01 01:36:58;;;;;;;;;;;;;;;5.20;51.91;100696.46;1799214;79;20905;-69
2021/04/01 01:39:26;;;;;;;;;;;;;;;5.18;51.92;100692.15;1798474;79;20268;-69
2021/04/01 01:41:53;;;;;;;;;;;;;;;5.19;51.87;100693.00;1802068;79;22053;-69
2021/04/01 01:44:20;;;;;;;;;;;;;;;5.21;51.86;100691.60;1797214;80;20255;-69
2021/04/01 01:46:48;;;;;;;;;;;;;;;5.21;51.85;100688.98;1808516;79;20434;-70
2021/04/01 01:49:15;;;;;;;;;;;;;;;5.21;51.84;100687.23;1797373;80;20472;-69
2021/04/01 01:51:42;;;;;;;;;;;;;;;5.20;51.80;100685.98;1797525;79;20208;-69
2021/04/01 01:54:10;;;;;;;;;;;;;;;5.21;51.85;100679.39;1776896;80;22131;-70
2021/04/01 01:56:38;;;;;;;;;;;;;;;5.20;51.86;100679.44;1798367;79;20348;-69
2021/04/01 01:59:05;;;;;;;;;;;;;;;5.20;51.80;100674.20;1797929;79;20428;-70
2021/04/01 02:01:33;;;;;;;;;;;;;;;5.21;51.62;100678.08;1804405;79;20880;-70
2021/04/01 02:04:03;;;;;;;;;;;;;;;5.21;51.63;100675.45;1797789;79;20220;-71
2021/04/01 02:06:31;;;;;;;;;;;;;;;5.22;51.64;100668.45;1799344;79;22503;-71
2021/04/01 02:08:59;;;;;;;;;;;;;;;5.21;51.56;100663.67;1798350;79;20410;-70
2021/04/01 02:11:28;;;;;;;;;;;;;;;5.21;51.58;100668.03;1796532;79;20267;-69
2021/04/01 02:13:56;;;;;;;;;;;;;;;5.20;51.65;100666.34;1809754;79;20498;-70
2021/04/01 02:16:23;;;;;;;;;;;;;;;5.19;51.82;100668.12;1797666;79;20212;-70
2021/04/01 02:18:51;;;;;;;;;;;;;;;5.15;51.97;100666.14;1798209;79;21826;-69
2021/04/01 02:21:21;;;;;;;;;;;;;;;5.13;52.17;100670.61;1805999;78;20324;-69
2021/04/01 02:23:48;;;;;;;;;;;;;;;5.07;52.28;100664.84;1795309;79;20236;-70
2021/04/01 02:26:16;;;;;;;;;;;;;;;5.02;52.47;100668.14;1793518;79;21730;-70
2021/04/01 02:28:43;;;;;;;;;;;;;;;4.97;52.54;100670.17;1795067;79;20220;-70
2021/04/01 02:31:19;;;;;;;;;;;;;;;4.90;52.59;100665.70;1776543;80;22080;-70
2021/04/01 02:33:41;;;;;;;;;;;;;;;4.85;52.66;100670.34;1792966;79;20420;-70
2021/04/01 02:36:08;;;;;;;;;;;;;;;4.82;52.75;100662.62;1773836;80;20499;-70
2021/04/01 02:38:36;;;;;;;;;;;;;;;4.79;52.88;100657.55;1802752;79;20889;-70
2021/04/01 02:41:05;;;;;;;;;;;;;;;4.74;52.94;100651.73;1794243;79;20227;-70
2021/04/01 02:43:32;;;;;;;;;;;;;;;4.71;53.10;100655.33;1790252;78;22057;-70
2021/04/01 02:46:02;;;;;;;;;;;;;;;4.67;53.19;100653.80;1794108;79;20376;-70
2021/04/01 02:48:30;;;;;;;;;;;;;;;4.64;53.34;100651.81;1795105;79;20301;-70
2021/04/01 02:50:58;;;;;;;;;;;;;;;4.59;53.46;100646.80;1794253;79;20473;-69
2021/04/01 02:53:25;;;;;;;;;;;;;;;4.52;53.60;100651.47;1793649;78;20488;-69
2021/04/01 02:55:55;;;;;;;;;;;;;;;4.49;53.79;100649.48;1771992;80;21837;-70
2021/04/01 02:58:25;;;;;;;;;;;;;;;4.44;53.98;100657.58;1793861;79;21375;-70
2021/04/01 03:00:53;;;;;;;;;;;;;;;4.42;54.12;100648.94;1799836;78;20237;-70
2021/04/01 03:05:55;;;;;;;;;;;;;;;4.38;54.41;100648.71;1793740;80;20214;-71
2021/04/01 03:08:22;;;;;;;;;;;;;;;4.35;54.48;100647.56;1795544;79;22152;-71
2021/04/01 03:10:51;;;;;;;;;;;;;;;4.34;54.67;100653.69;1795187;79;20369;-72
2021/04/01 03:13:18;;;;;;;;;;;;;;;4.31;54.80;100648.62;1793831;80;20248;-70
2021/04/01 03:15:51;;;;;;;;;;;;;;;4.27;54.90;100645.78;1800402;79;20439;-70
2021/04/01 03:18:20;;;;;;;;;;;;;;;4.24;54.96;100646.75;1796681;79;20220;-70
2021/04/01 03:20:48;;;;;;;;;;;;;;;4.23;55.11;100641.61;1776181;79;21899;-70
2021/04/01 03:23:17;;;;;;;;;;;;;;;4.20;55.13;100643.08;1803213;79;20373;-70
2021/04/01 03:25:44;;;;;;;;;;;;;;;4.17;55.23;100644.08;1803327;78;20261;-70
2021/04/01 03:28:12;;;;;;;;;;;;;;;4.16;55.30;100646.31;1803376;79;20476;-70
2021/04/01 03:30:49;;;;;;;;;;;;;;;4.14;55.41;100640.75;1803328;79;20217;-71
2021/04/01 03:33:11;;;;;;;;;;;;;;;4.12;55.48;100643.44;1802884;79;22625;-70
2021/04/01 03:35:38;;;;;;;;;;;;;;;4.11;55.53;100643.52;1803241;79;20235;-71
2021/04/01 03:38:06;;;;;;;;;;;;;;;4.10;55.60;100643.14;1803327;79;20213;-70
2021/04/01 03:40:35;;;;;;;;;;;;;;;4.07;55.72;100638.91;1802695;79;21447;-72
2021/04/01 03:43:02;;;;;;;;;;;;;;;4.05;55.80;100638.11;1803204;79;20246;-70
2021/04/01 03:45:29;;;;;;;;;;;;;;;4.02;55.90;100637.81;1803198;79;22057;-70
2021/04/01 03:47:58;;;;;;;;;;;;;;;4.02;56.06;100642.19;1802995;78;20225;-69
2021/04/01 03:50:25;;;;;;;;;;;;;;;3.98;56.12;100631.05;1803007;79;20495;-71
2021/04/01 03:52:52;;;;;;;;;;;;;;;3.95;56.20;100637.70;1802837;79;20317;-69
2021/04/01 03:58:49;;;;;;;;;;;;;;;3.91;56.43;100638.78;1803179;78;22962;-69
2021/04/01 04:00:34;;;;;;;;;;;;;;;3.90;56.53;100634.95;1782801;79;21072;-70
2021/04/01 04:03:08;;;;;;;;;;;;;;;3.88;56.67;100636.33;1796947;79;20243;-66
2021/04/01 04:05:37;;;;;;;;;;;;;;;3.90;56.74;100637.56;1801596;79;20489;-67
2021/04/01 04:08:22;;;;;;;;;;;;;;;3.90;56.85;100634.95;1801853;79;20288;-67
2021/04/01 04:10:55;;;;;;;;;;;;;;;3.92;56.92;100635.72;1800128;79;22081;-66
2021/04/01 04:13:42;;;;;;;;;;;;;;;;;;;;;
2021/04/01 04:16:07;;;;;;;;;;;;;;;3.95;57.10;100632.94;1692138;84;20233;-70
2021/04/01 04:18:34;;;;;;;;;;;;;;;3.97;57.17;100632.44;1687575;83;20484;-68
2021/04/01 04:21:02;;;;;;;;;;;;;;;3.98;57.24;100628.44;1684142;82;20223;-68
2021/04/01 04:23:30;;;;;;;;;;;;;;;4.00;57.29;100628.36;1694427;82;23063;-68
2021/04/01 04:25:58;;;;;;;;;;;;;;;4.02;57.35;100623.89;1693249;83;20404;-68
2021/04/01 04:28:32;;;;;;;;;;;;;;;4.04;57.37;100625.97;1690144;82;20221;-68
2021/04/01 04:30:59;;;;;;;;;;;;;;;4.08;57.45;100617.08;1690372;82;20625;-67
2021/04/01 04:33:27;;;;;;;;;;;;;;;4.11;57.55;100610.84;1691661;84;20429;-69
2021/04/01 04:35:56;;;;;;;;;;;;;;;4.13;57.59;100615.53;1667053;84;22123;-69
2021/04/01 04:38:24;;;;;;;;;;;;;;;4.17;57.63;100614.48;1702586;82;21125;-69
2021/04/01 04:40:55;;;;;;;;;;;;;;;4.21;57.69;100614.70;1713656;82;20405;-70
2021/04/01 04:43:21;;;;;;;;;;;;;;;4.24;57.82;100611.46;1690533;82;20583;-71
2021/04/01 04:45:50;;;;;;;;;;;;;;;4.28;57.89;100613.02;1691377;83;20258;-70
2021/04/01 04:48:18;;;;;;;;;;;;;;;4.33;58.04;100614.08;1711933;81;22087;-70
2021/04/01 04:50:47;;;;;;;;;;;;;;;4.39;58.09;100608.56;1709213;81;20266;-68
2021/04/01 04:53:15;;;;;;;;;;;;;;;4.45;58.09;100608.27;1713170;81;20222;-70
2021/04/01 04:58:44;;;;;;;;;;;;;;;4.58;58.26;100588.86;1721736;81;20295;-70
2021/04/01 05:01:11;;;;;;;;;;;;;;;4.68;58.21;100595.77;1709368;82;23418;-70
2021/04/01 05:07:07;;;;;;;;;;;;;;;4.90;57.97;100595.03;1711780;81;20215;-70
2021/04/01 05:08:51;;;;;;;;;;;;;;;5.00;57.83;100592.31;1708399;81;20271;-70
2021/04/01 05:11:18;;;;;;;;;;;;;;;5.11;57.44;100585.20;1714208;81;20215;-70
2021/04/01 05:13:46;;;;;;;;;;;;;;;5.22;57.33;100586.80;1705962;82;22068;-72
2021/04/01 05:16:13;;;;;;;;;;;;;;;5.33;57.19;100586.22;1727755;81;21212;-71
2021/04/01 05:18:41;;;;;;;;;;;;;;;5.42;57.03;100576.09;1710683;81;20219;-71
2021/04/01 05:21:09;;;;;;;;;;;;;;;5.53;56.88;100579.89;1726748;81;22555;-70
2021/04/01 05:23:39;;;;;;;;;;;;;;;5.62;56.60;100574.98;1718118;81;20213;-71
2021/04/01 05:28:50;;;;;;;;;;;;;;;5.85;56.43;100568.91;1717386;81;20281;-69
2021/04/01 05:31:22;;;;;;;;;;;;;;;5.97;56.25;100563.83;1704762;83;20286;-69
2021/04/01 05:33:50;;;;;;;;;;;;;;;6.12;56.19;100563.90;1712109;81;20469;-69
2021/04/01 05:36:26;;;;;;;;;;;;;;;6.26;55.68;100565.23;1713243;81;20223;-70
2021/04/01 05:38:51;;;;;;;;;;;;;;;6.40;55.18;100561.35;1716782;81;22070;-70
2021/04/01 05:41:22;;;;;;;;;;;;;;;6.52;55.07;100559.77;1719189;81;20396;-71
2021/04/01 05:43:52;;;;;;;;;;;;;;;6.63;54.88;100557.34;1719019;81;20406;-70
2021/04/01 05:46:27;;;;;;;;;;;;;;;6.77;54.75;100552.13;1724822;81;20477;-71
2021/04/01 05:48:59;;;;;;;;;;;;;;;6.89;54.51;100546.59;1723589;81;20256;-72
2021/04/01 05:51:45;;;;;;;;;;;;;;;6.99;54.06;100537.67;1716683;81;21910;-74
2021/04/01 05:59:41;;;;;;;;;;;;;;;7.32;53.57;100532.92;1726286;81;20271;-70
2021/04/01 06:02:04;;;;;;;;;;;;;;;7.46;53.28;100537.32;1709727;81;20231;-70
2021/04/01 06:04:45;;;;;;;;;;;;;;;7.59;52.90;100538.69;1702537;84;22076;-69
2021/04/01 06:07:17;;;;;;;;;;;;;;;7.68;52.95;100534.98;1745223;81;21952;-69
2021/04/01 06:09:48;;;;;;;;;;;;;;;7.81;52.79;100533.70;1709080;81;20241;-69
2021/04/01 06:12:16;;;;;;;;;;;;;;;7.93;52.53;100530.30;1744114;81;20569;-69
2021/04/01 06:14:54;;;;;;;;;;;;;;;8.06;52.18;100526.38;1765166;80;20218;-68
2021/04/01 06:17:24;;;;;;;;;;;;;;;8.16;52.17;100522.18;1667774;84;41699;-74
2021/04/01 06:19:54;;;;;;;;;;;;;;;8.27;51.72;100517.51;1709344;83;20485;-71
2021/04/01 06:22:22;;;;;;;;;;;;;;;8.35;51.60;100521.81;1669658;84;20220;-73
2021/04/01 06:24:50;;;;;;;;;;;;;;;8.44;51.56;100517.72;1673560;84;20518;-71
2021/04/01 06:33:12;;;;;;;;;;;;;;;8.87;51.43;100511.63;1809748;79;20491;-71
2021/04/01 06:35:47;;;;;;;;;;;;;;;9.04;50.81;100515.25;1766347;80;22961;-75
2021/04/01 06:40:48;;;;;;;;;;;;;;;9.26;50.54;100505.33;1783046;80;20218;-72
2021/04/01 06:43:26;;;;;;;;;;;;;;;9.39;50.56;100502.19;1749564;80;20970;-73
2021/04/01 06:46:00;;;;;;;;;;;;;;;9.55;50.00;100504.54;1785466;80;20219;-72
2021/04/01 06:51:19;;;;;;;;;;;;;;;9.84;49.58;100505.03;1788348;80;20423;-71
2021/04/01 06:56:51;;;;;;;;;;;;;;;10.12;49.24;100492.42;1781892;80;20243;-72
2021/04/01 06:59:33;;;;;;;;;;;;;;;10.28;49.12;100491.17;1786919;80;20496;-72
2021/04/01 07:02:18;;;;;;;;;;;;;;;10.41;48.43;100488.42;1769631;80;22078;-72
2021/04/01 07:04:32;;;;;;;;;;;;;;;10.54;48.71;100485.22;1764317;80;20583;-71
2021/04/01 07:07:05;;;;;;;;;;;;;;;10.68;48.22;100487.26;1773710;80;20228;-69
2021/04/01 07:09:39;;;;;;;;;;;;;;;10.80;47.91;100488.94;1787903;80;20253;-77
2021/04/01 07:12:10;;;;;;;;;;;;;;;10.91;47.83;100484.16;1781053;80;20723;-74
2021/04/01 07:14:40;;;;;;;;;;;;;;;11.06;47.44;100482.92;1728310;80;22072;-76
2021/04/01 07:17:10;;;;;;;;;;;;;;;11.18;47.44;100478.80;1774330;80;21238;-74
2021/04/01 07:47:36;;;;;;;;;;;;;;;12.94;43.45;100438.86;1760618;80;20266;-73
2021/04/01 07:50:17;;;;;;;;;;;;;;;13.07;43.11;100437.28;1752584;81;21108;-75
2021/04/01 07:52:45;;;;;;;;;;;;;;;13.14;43.07;100435.28;1762398;80;20855;-71
2021/04/01 07:55:59;;;;;;;;;;;;;;;13.23;42.90;100440.78;1763845;81;22150;-78
2021/04/01 07:58:50;;;;;;;;;;;;;;;13.35;43.56;100435.69;1752961;80;20394;-80
2021/04/01 08:03:01;;;;;;;;;;;;;;;13.66;42.35;100425.77;1762004;80;20633;-85
2021/04/01 08:05:32;;;;;;;;;;;;;;;13.74;42.03;100423.27;1757153;81;20306;-77
2021/04/01 08:08:06;;;;;;;;;;;;;;;13.81;42.03;100424.88;1759938;81;21825;-74
2021/04/01 08:10:32;;;;;;;;;;;;;;;13.84;41.96;100423.25;1759365;81;20498;-73
2021/04/01 08:13:09;;;;;;;;;;;;;;;13.89;41.72;100418.34;1749626;81;20465;-75
2021/04/01 08:15:41;;;;;;;;;;;;;;;13.96;41.52;100409.67;1726909;81;20247;-77
2021/04/01 08:18:18;;;;;;;;;;;;;;;14.07;41.39;100411.32;1762405;81;20561;-75
2021/04/01 08:20:43;;;;;;;;;;;;;;;14.15;41.36;100417.25;1758855;81;21946;-75
2021/04/01 08:23:18;;;;;;;;;;;;;;;14.18;40.83;100421.77;1755394;81;20404;-73
2021/04/01 08:26:03;;;;;;;;;;;;;;;14.18;41.15;100393.88;1761239;81;20238;-76
2021/04/01 08:36:40;;;;;;;;;;;;;;;14.69;40.52;100387.79;1726573;82;20373;-71
2021/04/01 08:39:09;;;;;;;;;;;;;;;14.70;40.46;100379.66;1746442;81;20559;-76
2021/04/01 08:42:10;;;;;;;;;;;;;;;14.68;40.50;100374.16;1743538;81;20272;-73
2021/04/01 08:45:33;;;;;;;;;;;;;;;14.73;40.73;100377.19;1758015;81;20266;-74
2021/04/01 08:48:44;;;;;;;;;;;;;;;14.81;40.13;100376.80;1767047;80;22062;-70
2021/04/01 08:51:32;;;;;;;;;;;;;;;14.78;39.85;100370.45;1751862;80;20384;-81
2021/04/01 08:54:15;;;;;;;;;;;;;;;14.71;39.97;100360.06;1749568;81;20276;-77
2021/04/01 08:57:09;;;;;;;;;;;;;;;14.68;39.77;100367.52;1774539;80;21201;-76
2021/04/01 08:59:56;;;;;;;;;;;;;;;14.77;40.86;100357.31;1775608;79;20281;-75
2021/04/01 09:02:26;;;;;;;;;;;;;;;15.03;40.32;100359.57;1718954;82;22763;-75
2021/04/01 09:04:56;;;;;;;;;;;;;;;15.23;40.09;100342.13;1710025;83;21202;-73
2021/04/01 09:07:28;;;;;;;;;;;;;;;15.38;41.11;100341.95;1745257;80;20385;-73
2021/04/01 09:10:04;;;;;;;;;;;;;;;15.54;40.57;100339.42;1696775;82;20300;-76
2021/04/01 09:12:37;;;;;;;;;;;;;;;15.63;40.40;100345.19;1763782;79;20547;-75
2021/04/01 09:15:09;;;;;;;;;;;;;;;15.72;39.70;100343.39;1736404;81;22069;-77
2021/04/01 09:17:37;;;;;;;;;;;;;;;15.75;39.78;100340.44;1713609;81;20300;-78
2021/04/01 09:20:14;;;;;;;;;;;;;;;15.73;39.74;100347.26;1737789;81;20298;-79
2021/04/01 09:22:43;;;;;;;;;;;;;;;15.70;39.58;100342.22;1731980;82;20229;-74
2021/04/01 09:25:11;;;;;;;;;;;;;;;15.71;39.79;100333.73;1751427;81;20222;-76
2021/04/01 09:27:53;;;;;;;;;;;;;;;15.78;39.62;100332.63;1753599;81;21386;-73
2021/04/01 09:30:23;;;;;;;;;;;;;;;15.78;40.22;100329.47;1756888;80;20357;-75
2021/04/01 09:32:53;;;;;;;;;;;;;;;15.84;40.28;100319.53;1766504;80;20209;-74
2021/04/01 09:35:21;;;;;;;;;;;;;;;15.97;39.49;100325.26;1775126;79;20257;-70
2021/04/01 09:37:50;;;;;;;;;;;;;;;16.05;38.68;100307.66;1777197;80;20268;-70
2021/04/01 09:40:19;;;;;;;;;;;;;;;16.09;38.76;100303.67;1769957;80;22074;-74
2021/04/01 09:42:46;;;;;;;;;;;;;;;16.12;38.86;100311.36;1758058;80;20695;-73
2021/04/01 09:45:14;;;;;;;;;;;;;;;16.16;38.31;100302.05;1765429;81;20238;-71
2021/04/01 09:47:48;;;;;;;;;;;;;;;16.14;38.84;100296.05;1790959;80;20288;-71
2021/04/01 09:50:16;;;;;;;;;;;;;;;16.22;39.21;100290.76;1774354;80;20230;-71
2021/04/01 09:53:01;;;;;;;;;;;;;;;16.42;38.39;100290.83;1772760;80;22053;-72
2021/04/01 09:55:39;;;;;;;;;;;;;;;16.47;38.16;100295.16;1787002;80;20371;-70
2021/04/01 09:58:26;;;;;;;;;;;;;;;16.44;38.25;100288.00;1781605;80;20488;-71
2021/04/01 10:01:09;;;;;;;;;;;;;;;16.54;38.49;100274.86;1778127;80;20245;-71
2021/04/01 10:03:34;;;;;;;;;;;;;;;16.74;38.83;100279.94;1782400;80;20234;-71
2021/04/01 10:06:01;;;;;;;;;;;;;;;16.84;38.13;100285.45;1784360;80;22507;-72
2021/04/01 10:08:29;;;;;;;;;;;;;;;16.83;38.12;100281.63;1772549;80;20797;-72
2021/04/01 10:11:02;;;;;;;;;;;;;;;16.78;37.51;100277.27;1790933;80;20501;-71
2021/04/01 10:13:32;;;;;;;;;;;;;;;16.82;37.88;100275.95;1788408;80;20500;-72
2021/04/01 10:16:01;;;;;;;;;;;;;;;16.91;37.80;100270.97;1788544;80;20264;-72
2021/04/01 10:18:31;;;;;;;;;;;;;;;17.08;37.99;100267.32;1795106;80;22069;-72
2021/04/01 10:21:10;;;;;;;;;;;;;;;17.31;37.49;100266.14;1779992;80;20367;-72
2021/04/01 10:23:48;;;;;;;;;;;;;;;17.46;37.23;100262.27;1768996;80;20282;-72
2021/04/01 10:26:17;;;;;;;;;;;;;;;17.54;37.37;100247.58;1785072;80;21099;-71
2021/04/01 10:28:57;;;;;;;;;;;;;;;17.60;36.32;100250.91;1795193;80;20257;-72
2021/04/01 10:31:23;;;;;;;;;;;;;;;17.57;36.95;100245.92;1781626;80;22940;-72
2021/04/01 10:33:57;;;;;;;;;;;;;;;17.60;36.88;100241.56;1787962;79;20219;-71
2021/04/01 10:36:28;;;;;;;;;;;;;;;17.72;36.58;100244.23;1778870;80;20230;-72
2021/04/01 10:39:09;;;;;;;;;;;;;;;17.88;36.23;100238.52;1767179;80;21182;-74
2021/04/01 10:41:45;;;;;;;;;;;;;;;17.94;35.98;100230.63;1752282;82;20236;-74
2021/04/01 10:44:21;;;;;;;;;;;;;;;18.12;36.12;100222.38;1823364;76;20156;-74
2021/04/01 10:46:54;;;;;;;;;;;;;;;18.21;35.52;100215.15;1795544;79;20255;-74
2021/04/01 10:49:23;;;;;;;;;;;;;;;18.29;35.53;100234.66;1801251;79;23384;-73
2021/04/01 10:51:54;;;;;;;;;;;;;;;18.34;35.34;100214.59;1785864;80;21236;-72
2021/04/01 10:54:24;;;;;;;;;;;;;;;18.31;35.25;100209.91;1786417;79;20294;-72
2021/04/01 10:56:55;;;;;;;;;;;;;;;18.29;35.07;100209.26;1786890;79;20262;-72
2021/04/01 10:59:35;;;;;;;;;;;;;;;18.34;35.52;100210.59;1802097;79;20283;-73
2021/04/01 11:02:05;;;;;;;;;;;;;;;18.42;35.12;100223.88;1792994;79;22120;-74
2021/04/01 11:04:32;;;;;;;;;;;;;;;18.41;34.89;100213.70;1801649;79;21454;-72
2021/04/01 11:07:02;;;;;;;;;;;;;;;18.41;35.00;100203.00;1818060;77;20224;-72
2021/04/01 11:09:30;;;;;;;;;;;;;;;18.42;35.16;100199.31;1790408;79;21236;-73
2021/04/01 11:14:34;;;;;;;;;;;;;;;18.61;35.13;100177.95;1787137;79;21466;-73
2021/04/01 11:17:03;;;;;;;;;;;;;;;18.70;34.54;100171.56;1817839;79;20230;-72
2021/04/01 11:19:30;;;;;;;;;;;;;;;18.76;34.75;100168.19;1814245;79;20491;-72
2021/04/01 11:21:58;;;;;;;;;;;;;;;18.84;34.47;100177.48;1817922;79;20238;-72
2021/04/01 11:24:29;;;;;;;;;;;;;;;18.92;34.88;100163.72;1800455;79;20219;-71
2021/04/01 11:26:58;;;;;;;;;;;;;;;18.98;34.20;100157.11;1755840;80;23018;-72
2021/04/01 11:29:30;;;;;;;;;;;;;;;18.92;34.00;100158.37;1771430;79;20216;-72
2021/04/01 11:31:55;;;;;;;;;;;;;;;18.90;34.01;100155.02;1793708;76;20496;-72
2021/04/01 11:34:22;;;;;;;;;;;;;;;18.97;34.64;100146.59;1808518;79;20236;-72
2021/04/01 11:36:52;;;;;;;;;;;;;;;19.15;34.59;100139.89;1796183;79;20219;-72
2021/04/01 11:39:35;;;;;;;;;;;;;;;19.38;33.32;100141.14;1787935;79;22018;-73
2021/04/01 11:41:53;;;;;;;;;;;;;;;19.32;33.84;100129.84;1816070;79;20569;-72
2021/04/01 11:44:21;;;;;;;;;;;;;;;19.30;33.50;100133.70;1805042;78;20210;-72
2021/04/01 11:46:48;;;;;;;;;;;;;;;19.30;33.86;100131.02;1785750;80;20227;-71
2021/04/01 11:49:15;;;;;;;;;;;;;;;19.41;33.50;100126.56;1797334;79;20210;-72
2021/04/01 11:51:42;;;;;;;;;;;;;;;19.47;33.52;100126.31;1800726;79;22054;-74
2021/04/01 11:54:11;;;;;;;;;;;;;;;19.45;33.61;100121.16;1802382;77;20357;-77
2021/04/01 11:56:42;;;;;;;;;;;;;;;19.43;33.06;100129.88;1796439;79;20425;-73
2021/04/01 11:59:18;;;;;;;;;;;;;;;19.20;33.35;100105.02;1785264;79;20670;-73
2021/04/01 12:01:59;;;;;;;;;;;;;;;19.08;34.30;100104.66;1785435;79;20223;-73
2021/04/01 12:04:27;;;;;;;;;;;;;;;19.11;34.24;100101.13;1786258;79;22057;-73
2021/04/01 12:06:54;;;;;;;;;;;;;;;19.20;34.22;100104.52;1784940;79;20357;-73
2021/04/01 12:09:21;;;;;;;;;;;;;;;19.26;34.09;100094.42;1799843;77;20282;-76
2021/04/01 12:11:49;;;;;;;;;;;;;;;19.31;33.66;100086.67;1795282;79;21333;-75
2021/04/01 12:14:17;;;;;;;;;;;;;;;19.35;33.56;100097.33;1785408;79;20227;-73
2021/04/01 12:16:45;;;;;;;;;;;;;;;19.39;33.99;100085.72;1768740;80;21885;-74
2021/04/01 12:19:12;;;;;;;;;;;;;;;19.60;34.01;100082.34;1804768;79;21395;-74
2021/04/01 12:21:41;;;;;;;;;;;;;;;19.79;33.57;100079.06;1808791;79;20301;-74
2021/04/01 12:24:09;;;;;;;;;;;;;;;20.03;32.65;100069.83;1799927;79;20630;-74
2021/04/01 12:26:50;;;;;;;;;;;;;;;20.17;32.70;100066.28;1800731;79;20220;-72
2021/04/01 12:29:18;;;;;;;;;;;;;;;20.37;32.51;100058.92;1797589;79;21877;-74
2021/04/01 12:31:54;;;;;;;;;;;;;;;20.56;32.07;100055.61;1809050;79;20372;-73
2021/04/01 12:34:28;;;;;;;;;;;;;;;20.69;31.50;100056.22;1790225;79;20219;-73
2021/04/01 12:36:55;;;;;;;;;;;;;;;20.66;31.64;100043.20;1799908;79;20931;-73
2021/04/01 12:39:33;;;;;;;;;;;;;;;20.66;32.24;100049.91;1787925;79;20413;-72
2021/04/01 12:42:00;;;;;;;;;;;;;;;20.86;31.96;100044.99;1804454;78;22657;-74
2021/04/01 12:44:36;;;;;;;;;;;;;;;21.01;31.55;100042.17;1820476;78;20352;-75
2021/04/01 12:47:04;;;;;;;;;;;;;;;21.08;31.48;100039.02;1810860;78;20219;-76
2021/04/01 12:49:33;;;;;;;;;;;;;;;20.97;31.34;100038.75;1816886;76;20305;-75
2021/04/01 12:52:02;;;;;;;;;;;;;;;20.83;31.10;100033.80;1819333;78;20214;-75
2021/04/01 12:54:37;;;;;;;;;;;;;;;20.75;31.35;100024.06;1829699;76;22962;-77
2021/04/01 12:57:10;;;;;;;;;;;;;;;20.89;31.12;100019.60;1820534;77;21189;-75
2021/04/01 12:59:40;;;;;;;;;;;;;;;21.00;31.05;100019.55;1821228;78;20582;-75
2021/04/01 13:02:14;;;;;;;;;;;;;;;21.07;30.79;100018.58;1815896;78;20220;-75
2021/04/01 13:04:44;;;;;;;;;;;;;;;20.82;31.37;100008.81;1817953;78;20267;-76
2021/04/01 13:09:46;;;;;;;;;;;;;;;20.95;31.75;100005.40;1815290;77;20369;-74
2021/04/01 13:12:19;;;;;;;;;;;;;;;21.29;31.39;100006.41;1813667;76;20229;-74
2021/04/01 13:14:46;;;;;;;;;;;;;;;21.54;31.28;99993.28;1815886;78;20217;-75
2021/04/01 13:17:15;;;;;;;;;;;;;;;21.62;30.05;99995.27;1815192;78;20241;-75
2021/04/01 13:19:42;;;;;;;;;;;;;;;21.42;30.42;99995.70;1808078;78;22050;-75
2021/04/01 13:22:22;;;;;;;;;;;;;;;21.52;30.97;99980.54;1818286;77;20325;-75
2021/04/01 13:27:20;;;;;;;;;;;;;;;21.91;29.71;99975.79;1791925;80;20302;-76
2021/04/01 13:29:53;;;;;;;;;;;;;;;21.67;29.94;99968.59;1794298;80;20492;-76
2021/04/01 13:32:21;;;;;;;;;;;;;;;21.50;30.47;99970.52;1764420;80;21887;-75
2021/04/01 13:34:51;;;;;;;;;;;;;;;21.40;30.55;99965.52;1778901;80;20318;-76
2021/04/01 13:37:22;;;;;;;;;;;;;;;21.29;30.90;99968.80;1773885;80;20214;-74
2021/04/01 13:39:49;;;;;;;;;;;;;;;21.20;30.49;99970.80;1787305;80;20535;-72
2021/04/01 13:44:52;;;;;;;;;;;;;;;20.89;30.85;99963.22;1770029;80;22128;-75
2021/04/01 13:47:19;;;;;;;;;;;;;;;20.60;30.87;99957.59;1771103;80;20280;-75
2021/04/01 13:49:48;;;;;;;;;;;;;;;20.22;31.63;99954.39;1744965;80;20236;-74
2021/04/01 13:54:52;;;;;;;;;;;;;;;20.10;32.29;99945.23;1758302;80;20818;-77
2021/04/01 14:11:10;;;;;;;;;;;;;;;19.52;32.75;99927.04;1751563;81;23074;-80
2021/04/01 14:13:37;;;;;;;;;;;;;;;19.45;32.63;99925.11;1744638;80;20375;-77
2021/04/01 14:16:05;;;;;;;;;;;;;;;19.43;32.80;99916.44;1768343;79;20271;-74
2021/04/01 14:18:32;;;;;;;;;;;;;;;19.39;33.07;99908.45;1781775;79;20321;-74
2021/04/01 14:21:01;;;;;;;;;;;;;;;19.38;33.13;99905.97;1769703;80;20312;-74
2021/04/01 14:23:31;;;;;;;;;;;;;;;19.29;33.18;99905.77;1752010;81;21897;-76
2021/04/01 14:26:02;;;;;;;;;;;;;;;19.28;33.36;99911.63;1756585;81;20251;-76
2021/04/01 14:28:30;;;;;;;;;;;;;;;19.24;33.36;99910.88;1714047;81;20691;-74
2021/04/01 14:30:58;;;;;;;;;;;;;;;19.13;33.70;99904.17;1758263;81;20686;-75
2021/04/01 14:33:27;;;;;;;;;;;;;;;19.03;33.73;99911.16;1747325;81;20226;-75
2021/04/01 14:35:57;;;;;;;;;;;;;;;19.02;34.26;99905.48;1759814;79;22984;-76
2021/04/01 14:38:24;;;;;;;;;;;;;;;19.11;33.78;99899.52;1753839;81;20366;-76